sensor_id;sensor_type;location;lat;lon;timestamp;P1;durP1;ratioP1;P2;durP2;ratioP2
40945;SDS011;55635;50.264;11.918;2022-08-21T00:01:37;21.92;;;17.33;;
40945;SDS011;55635;50.264;11.918;2022-08-21T00:04:19;24.52;;;17.50;;
40945;SDS011;55635;50.264;11.918;2022-08-21T00:07:00;22.42;;;18.67;;
40945;SDS011;55635;50.264;11.918;2022-08-21T00:09:41;20.45;;;16.15;;
40945;SDS011;55635;50.264;11.918;2022-08-21T00:12:22;20.17;;;14.82;;
40945;SDS011;55635;50.264;11.918;2022-08-21T00:15:04;583.97;;;38.30;;
40945;SDS011;55635;50.264;11.918;2022-08-21T00:17:48;20.73;;;17.35;;
40945;SDS011;55635;50.264;11.918;2022-08-21T00:20:29;18.20;;;16.17;;
40945;SDS011;55635;50.264;11.918;2022-08-21T00:23:11;18.02;;;15.98;;
40945;SDS011;55635;50.264;11.918;2022-08-21T00:25:53;19.52;;;16.73;;
40945;SDS011;55635;50.264;11.918;2022-08-21T00:28:33;185.27;;;27.25;;
40945;SDS011;55635;50.264;11.918;2022-08-21T00:31:15;383.85;;;32.25;;
40945;SDS011;55635;50.264;11.918;2022-08-21T00:33:58;36.80;;;14.70;;
40945;SDS011;55635;50.264;11.918;2022-08-21T00:36:39;169.65;;;16.60;;
40945;SDS011;55635;50.264;11.918;2022-08-21T00:39:20;54.53;;;14.48;;
40945;SDS011;55635;50.264;11.918;2022-08-21T00:42:01;147.23;;;17.92;;
40945;SDS011;55635;50.264;11.918;2022-08-21T00:44:43;219.07;;;28.75;;
40945;SDS011;55635;50.264;11.918;2022-08-21T00:47:27;29.45;;;17.05;;
40945;SDS011;55635;50.264;11.918;2022-08-21T00:50:09;16.92;;;14.82;;
40945;SDS011;55635;50.264;11.918;2022-08-21T00:52:52;38.35;;;15.80;;
40945;SDS011;55635;50.264;11.918;2022-08-21T00:55:34;19.73;;;15.60;;
40945;SDS011;55635;50.264;11.918;2022-08-21T00:58:17;24.73;;;13.75;;
40945;SDS011;55635;50.264;11.918;2022-08-21T01:00:59;15.52;;;14.02;;
40945;SDS011;55635;50.264;11.918;2022-08-21T01:03:41;45.55;;;16.17;;
40945;SDS011;55635;50.264;11.918;2022-08-21T01:06:22;197.68;;;19.73;;
40945;SDS011;55635;50.264;11.918;2022-08-21T01:09:03;106.13;;;14.85;;
40945;SDS011;55635;50.264;11.918;2022-08-21T01:11:44;96.90;;;14.85;;
40945;SDS011;55635;50.264;11.918;2022-08-21T01:14:26;65.95;;;14.38;;
40945;SDS011;55635;50.264;11.918;2022-08-21T01:17:08;85.80;;;17.00;;
40945;SDS011;55635;50.264;11.918;2022-08-21T01:19:57;118.78;;;16.70;;
40945;SDS011;55635;50.264;11.918;2022-08-21T01:22:39;153.90;;;17.30;;
40945;SDS011;55635;50.264;11.918;2022-08-21T01:25:20;71.00;;;15.68;;
40945;SDS011;55635;50.264;11.918;2022-08-21T01:28:02;188.05;;;23.63;;
40945;SDS011;55635;50.264;11.918;2022-08-21T01:30:52;131.32;;;18.08;;
40945;SDS011;55635;50.264;11.918;2022-08-21T01:33:33;23.85;;;13.70;;
40945;SDS011;55635;50.264;11.918;2022-08-21T01:36:15;96.75;;;16.17;;
40945;SDS011;55635;50.264;11.918;2022-08-21T01:38:56;21.20;;;15.35;;
40945;SDS011;55635;50.264;11.918;2022-08-21T01:41:37;43.72;;;17.10;;
40945;SDS011;55635;50.264;11.918;2022-08-21T01:44:20;18.80;;;13.55;;
40945;SDS011;55635;50.264;11.918;2022-08-21T01:47:04;24.17;;;13.23;;
40945;SDS011;55635;50.264;11.918;2022-08-21T01:49:47;17.00;;;13.63;;
40945;SDS011;55635;50.264;11.918;2022-08-21T01:52:28;42.35;;;13.63;;
40945;SDS011;55635;50.264;11.918;2022-08-21T01:55:10;18.90;;;11.85;;
40945;SDS011;55635;50.264;11.918;2022-08-21T01:57:53;15.55;;;11.07;;
40945;SDS011;55635;50.264;11.918;2022-08-21T02:00:34;67.13;;;12.20;;
40945;SDS011;55635;50.264;11.918;2022-08-21T02:03:15;142.88;;;14.15;;
40945;SDS011;55635;50.264;11.918;2022-08-21T02:05:56;102.60;;;14.35;;
40945;SDS011;55635;50.264;11.918;2022-08-21T02:08:37;100.28;;;16.10;;
40945;SDS011;55635;50.264;11.918;2022-08-21T02:11:18;242.57;;;29.92;;
40945;SDS011;55635;50.264;11.918;2022-08-21T02:14:00;291.45;;;28.38;;
40945;SDS011;55635;50.264;11.918;2022-08-21T02:16:42;26.40;;;13.13;;
40945;SDS011;55635;50.264;11.918;2022-08-21T02:19:24;35.00;;;13.98;;
40945;SDS011;55635;50.264;11.918;2022-08-21T02:22:05;12.82;;;11.57;;
40945;SDS011;55635;50.264;11.918;2022-08-21T02:24:50;73.45;;;15.85;;
40945;SDS011;55635;50.264;11.918;2022-08-21T02:27:37;81.40;;;18.58;;
40945;SDS011;55635;50.264;11.918;2022-08-21T02:30:26;176.88;;;18.13;;
40945;SDS011;55635;50.264;11.918;2022-08-21T02:33:11;133.50;;;20.85;;
40945;SDS011;55635;50.264;11.918;2022-08-21T02:35:53;26.73;;;12.65;;
40945;SDS011;55635;50.264;11.918;2022-08-21T02:38:37;37.88;;;13.45;;
40945;SDS011;55635;50.264;11.918;2022-08-21T02:41:20;23.15;;;13.35;;
40945;SDS011;55635;50.264;11.918;2022-08-21T02:44:02;15.13;;;13.00;;
40945;SDS011;55635;50.264;11.918;2022-08-21T02:46:43;14.13;;;12.73;;
40945;SDS011;55635;50.264;11.918;2022-08-21T02:49:24;13.93;;;12.70;;
40945;SDS011;55635;50.264;11.918;2022-08-21T02:52:05;15.80;;;14.10;;
40945;SDS011;55635;50.264;11.918;2022-08-21T02:54:46;13.88;;;12.45;;
40945;SDS011;55635;50.264;11.918;2022-08-21T02:57:27;14.23;;;12.98;;
40945;SDS011;55635;50.264;11.918;2022-08-21T03:00:09;14.35;;;12.95;;
40945;SDS011;55635;50.264;11.918;2022-08-21T03:02:52;13.57;;;12.35;;
40945;SDS011;55635;50.264;11.918;2022-08-21T03:05:35;14.63;;;13.27;;
40945;SDS011;55635;50.264;11.918;2022-08-21T03:08:18;14.55;;;13.13;;
40945;SDS011;55635;50.264;11.918;2022-08-21T03:11:00;16.73;;;14.93;;
40945;SDS011;55635;50.264;11.918;2022-08-21T03:13:41;15.38;;;13.90;;
40945;SDS011;55635;50.264;11.918;2022-08-21T03:16:22;17.60;;;15.80;;
40945;SDS011;55635;50.264;11.918;2022-08-21T03:19:03;20.30;;;16.90;;
40945;SDS011;55635;50.264;11.918;2022-08-21T03:21:44;15.85;;;14.15;;
40945;SDS011;55635;50.264;11.918;2022-08-21T03:24:25;22.25;;;17.27;;
40945;SDS011;55635;50.264;11.918;2022-08-21T03:27:06;28.88;;;18.45;;
40945;SDS011;55635;50.264;11.918;2022-08-21T03:29:47;31.45;;;21.88;;
40945;SDS011;55635;50.264;11.918;2022-08-21T03:32:28;35.88;;;22.40;;
40945;SDS011;55635;50.264;11.918;2022-08-21T03:35:11;38.70;;;23.45;;
40945;SDS011;55635;50.264;11.918;2022-08-21T03:37:53;36.83;;;23.17;;
40945;SDS011;55635;50.264;11.918;2022-08-21T03:40:35;39.67;;;22.92;;
40945;SDS011;55635;50.264;11.918;2022-08-21T03:43:16;41.17;;;22.88;;
40945;SDS011;55635;50.264;11.918;2022-08-21T03:45:58;36.55;;;24.08;;
40945;SDS011;55635;50.264;11.918;2022-08-21T03:48:42;41.60;;;24.33;;
40945;SDS011;55635;50.264;11.918;2022-08-21T03:51:23;35.90;;;23.33;;
40945;SDS011;55635;50.264;11.918;2022-08-21T03:54:04;32.33;;;22.08;;
40945;SDS011;55635;50.264;11.918;2022-08-21T03:56:51;28.38;;;20.55;;
40945;SDS011;55635;50.264;11.918;2022-08-21T03:59:32;32.75;;;21.65;;
40945;SDS011;55635;50.264;11.918;2022-08-21T04:02:13;32.00;;;21.42;;
40945;SDS011;55635;50.264;11.918;2022-08-21T04:04:59;31.40;;;20.95;;
40945;SDS011;55635;50.264;11.918;2022-08-21T04:07:40;35.65;;;23.42;;
40945;SDS011;55635;50.264;11.918;2022-08-21T04:10:22;44.85;;;26.05;;
40945;SDS011;55635;50.264;11.918;2022-08-21T04:13:04;44.15;;;25.73;;
40945;SDS011;55635;50.264;11.918;2022-08-21T04:15:48;34.08;;;23.33;;
40945;SDS011;55635;50.264;11.918;2022-08-21T04:18:29;40.90;;;25.88;;
40945;SDS011;55635;50.264;11.918;2022-08-21T04:21:10;47.33;;;28.27;;
40945;SDS011;55635;50.264;11.918;2022-08-21T04:23:53;53.60;;;28.30;;
40945;SDS011;55635;50.264;11.918;2022-08-21T04:26:36;45.55;;;27.08;;
40945;SDS011;55635;50.264;11.918;2022-08-21T04:29:19;47.75;;;29.55;;
40945;SDS011;55635;50.264;11.918;2022-08-21T04:32:00;42.72;;;26.52;;
40945;SDS011;55635;50.264;11.918;2022-08-21T04:34:41;42.58;;;28.45;;
40945;SDS011;55635;50.264;11.918;2022-08-21T04:37:22;47.65;;;29.73;;
40945;SDS011;55635;50.264;11.918;2022-08-21T04:40:03;51.60;;;29.52;;
40945;SDS011;55635;50.264;11.918;2022-08-21T04:42:50;49.15;;;29.02;;
40945;SDS011;55635;50.264;11.918;2022-08-21T04:45:41;50.22;;;30.30;;
40945;SDS011;55635;50.264;11.918;2022-08-21T04:48:25;51.80;;;29.88;;
40945;SDS011;55635;50.264;11.918;2022-08-21T04:51:12;50.83;;;29.73;;
40945;SDS011;55635;50.264;11.918;2022-08-21T04:54:00;49.97;;;29.95;;
40945;SDS011;55635;50.264;11.918;2022-08-21T04:56:56;54.38;;;31.73;;
40945;SDS011;55635;50.264;11.918;2022-08-21T04:59:49;60.50;;;31.92;;
40945;SDS011;55635;50.264;11.918;2022-08-21T05:02:31;51.20;;;29.13;;
40945;SDS011;55635;50.264;11.918;2022-08-21T05:05:13;49.45;;;30.50;;
40945;SDS011;55635;50.264;11.918;2022-08-21T05:07:56;61.65;;;31.70;;
40945;SDS011;55635;50.264;11.918;2022-08-21T05:10:39;52.42;;;31.10;;
40945;SDS011;55635;50.264;11.918;2022-08-21T05:13:20;57.45;;;32.78;;
40945;SDS011;55635;50.264;11.918;2022-08-21T05:16:01;55.35;;;31.40;;
40945;SDS011;55635;50.264;11.918;2022-08-21T05:18:43;55.03;;;32.05;;
40945;SDS011;55635;50.264;11.918;2022-08-21T05:21:24;57.83;;;31.17;;
40945;SDS011;55635;50.264;11.918;2022-08-21T05:24:04;52.72;;;30.83;;
40945;SDS011;55635;50.264;11.918;2022-08-21T05:26:45;55.47;;;31.20;;
40945;SDS011;55635;50.264;11.918;2022-08-21T05:29:27;51.88;;;30.40;;
40945;SDS011;55635;50.264;11.918;2022-08-21T05:32:12;59.67;;;33.33;;
40945;SDS011;55635;50.264;11.918;2022-08-21T05:34:54;57.90;;;31.77;;
40945;SDS011;55635;50.264;11.918;2022-08-21T05:37:35;58.03;;;32.42;;
40945;SDS011;55635;50.264;11.918;2022-08-21T05:40:16;60.03;;;32.35;;
40945;SDS011;55635;50.264;11.918;2022-08-21T05:42:58;53.85;;;30.65;;
40945;SDS011;55635;50.264;11.918;2022-08-21T05:45:40;53.42;;;30.05;;
40945;SDS011;55635;50.264;11.918;2022-08-21T05:48:23;54.00;;;31.33;;
40945;SDS011;55635;50.264;11.918;2022-08-21T05:51:08;54.88;;;30.75;;
40945;SDS011;55635;50.264;11.918;2022-08-21T05:53:53;52.70;;;30.85;;
40945;SDS011;55635;50.264;11.918;2022-08-21T05:56:34;61.20;;;32.95;;
40945;SDS011;55635;50.264;11.918;2022-08-21T05:59:15;52.85;;;30.48;;
40945;SDS011;55635;50.264;11.918;2022-08-21T06:01:56;56.10;;;32.92;;
40945;SDS011;55635;50.264;11.918;2022-08-21T06:04:37;54.13;;;30.17;;
40945;SDS011;55635;50.264;11.918;2022-08-21T06:07:19;59.80;;;33.17;;
40945;SDS011;55635;50.264;11.918;2022-08-21T06:10:00;52.45;;;31.05;;
40945;SDS011;55635;50.264;11.918;2022-08-21T06:12:42;53.50;;;32.92;;
40945;SDS011;55635;50.264;11.918;2022-08-21T06:15:26;56.42;;;31.63;;
40945;SDS011;55635;50.264;11.918;2022-08-21T06:18:07;59.88;;;33.35;;
40945;SDS011;55635;50.264;11.918;2022-08-21T06:20:49;55.65;;;30.15;;
40945;SDS011;55635;50.264;11.918;2022-08-21T06:23:29;55.47;;;32.90;;
40945;SDS011;55635;50.264;11.918;2022-08-21T06:26:12;51.25;;;30.88;;
40945;SDS011;55635;50.264;11.918;2022-08-21T06:28:54;57.35;;;33.40;;
40945;SDS011;55635;50.264;11.918;2022-08-21T06:31:35;54.15;;;32.95;;
40945;SDS011;55635;50.264;11.918;2022-08-21T06:34:16;62.45;;;33.33;;
40945;SDS011;55635;50.264;11.918;2022-08-21T06:36:58;55.03;;;32.55;;
40945;SDS011;55635;50.264;11.918;2022-08-21T06:39:39;56.08;;;32.78;;
40945;SDS011;55635;50.264;11.918;2022-08-21T06:42:20;52.20;;;31.50;;
40945;SDS011;55635;50.264;11.918;2022-08-21T06:45:00;50.03;;;31.23;;
40945;SDS011;55635;50.264;11.918;2022-08-21T06:47:41;49.88;;;30.23;;
40945;SDS011;55635;50.264;11.918;2022-08-21T06:50:22;50.70;;;31.25;;
40945;SDS011;55635;50.264;11.918;2022-08-21T06:53:08;48.00;;;30.02;;
40945;SDS011;55635;50.264;11.918;2022-08-21T06:55:54;43.63;;;27.85;;
40945;SDS011;55635;50.264;11.918;2022-08-21T06:58:35;43.35;;;29.73;;
40945;SDS011;55635;50.264;11.918;2022-08-21T07:01:16;47.80;;;29.67;;
40945;SDS011;55635;50.264;11.918;2022-08-21T07:03:57;46.35;;;29.35;;
40945;SDS011;55635;50.264;11.918;2022-08-21T07:06:38;42.50;;;27.65;;
40945;SDS011;55635;50.264;11.918;2022-08-21T07:09:19;47.97;;;28.73;;
40945;SDS011;55635;50.264;11.918;2022-08-21T07:12:01;41.55;;;26.67;;
40945;SDS011;55635;50.264;11.918;2022-08-21T07:14:43;42.92;;;28.23;;
40945;SDS011;55635;50.264;11.918;2022-08-21T07:17:24;38.17;;;25.23;;
40945;SDS011;55635;50.264;11.918;2022-08-21T07:20:05;36.75;;;25.70;;
40945;SDS011;55635;50.264;11.918;2022-08-21T07:22:47;35.35;;;25.77;;
40945;SDS011;55635;50.264;11.918;2022-08-21T07:25:28;34.97;;;26.83;;
40945;SDS011;55635;50.264;11.918;2022-08-21T07:28:10;33.95;;;23.83;;
40945;SDS011;55635;50.264;11.918;2022-08-21T07:30:51;35.15;;;24.63;;
40945;SDS011;55635;50.264;11.918;2022-08-21T07:33:35;31.05;;;23.98;;
40945;SDS011;55635;50.264;11.918;2022-08-21T07:36:16;28.35;;;22.10;;
40945;SDS011;55635;50.264;11.918;2022-08-21T07:38:57;26.10;;;21.13;;
40945;SDS011;55635;50.264;11.918;2022-08-21T07:41:38;23.33;;;19.27;;
40945;SDS011;55635;50.264;11.918;2022-08-21T07:44:19;23.42;;;18.52;;
40945;SDS011;55635;50.264;11.918;2022-08-21T07:47:00;21.70;;;18.80;;
40945;SDS011;55635;50.264;11.918;2022-08-21T07:49:42;24.48;;;18.38;;
40945;SDS011;55635;50.264;11.918;2022-08-21T07:52:22;20.70;;;15.93;;
40945;SDS011;55635;50.264;11.918;2022-08-21T07:55:03;20.02;;;17.25;;
40945;SDS011;55635;50.264;11.918;2022-08-21T07:57:45;16.75;;;14.77;;
40945;SDS011;55635;50.264;11.918;2022-08-21T08:00:27;18.05;;;15.82;;
40945;SDS011;55635;50.264;11.918;2022-08-21T08:03:10;16.70;;;14.63;;
40945;SDS011;55635;50.264;11.918;2022-08-21T08:05:51;20.65;;;17.33;;
40945;SDS011;55635;50.264;11.918;2022-08-21T08:08:32;24.08;;;18.90;;
40945;SDS011;55635;50.264;11.918;2022-08-21T08:11:14;22.15;;;18.23;;
40945;SDS011;55635;50.264;11.918;2022-08-21T08:13:55;21.85;;;17.40;;
40945;SDS011;55635;50.264;11.918;2022-08-21T08:16:37;22.42;;;17.75;;
40945;SDS011;55635;50.264;11.918;2022-08-21T08:19:18;21.60;;;16.80;;
40945;SDS011;55635;50.264;11.918;2022-08-21T08:21:59;16.20;;;13.93;;
40945;SDS011;55635;50.264;11.918;2022-08-21T08:24:40;16.08;;;13.60;;
40945;SDS011;55635;50.264;11.918;2022-08-21T08:27:21;15.70;;;13.52;;
40945;SDS011;55635;50.264;11.918;2022-08-21T08:30:03;15.40;;;13.85;;
40945;SDS011;55635;50.264;11.918;2022-08-21T08:32:46;16.73;;;14.02;;
40945;SDS011;55635;50.264;11.918;2022-08-21T08:35:30;19.33;;;13.90;;
40945;SDS011;55635;50.264;11.918;2022-08-21T08:38:11;16.70;;;14.52;;
40945;SDS011;55635;50.264;11.918;2022-08-21T08:41:10;17.15;;;14.20;;
40945;SDS011;55635;50.264;11.918;2022-08-21T08:44:04;15.07;;;13.55;;
40945;SDS011;55635;50.264;11.918;2022-08-21T08:46:47;18.75;;;15.25;;
40945;SDS011;55635;50.264;11.918;2022-08-21T08:49:35;16.98;;;14.25;;
40945;SDS011;55635;50.264;11.918;2022-08-21T08:52:45;18.02;;;16.08;;
40945;SDS011;55635;50.264;11.918;2022-08-21T08:55:46;17.35;;;15.32;;
40945;SDS011;55635;50.264;11.918;2022-08-21T08:58:29;19.17;;;14.73;;
40945;SDS011;55635;50.264;11.918;2022-08-21T09:01:19;18.70;;;15.73;;
40945;SDS011;55635;50.264;11.918;2022-08-21T09:04:01;16.90;;;15.10;;
40945;SDS011;55635;50.264;11.918;2022-08-21T09:06:44;17.25;;;15.43;;
40945;SDS011;55635;50.264;11.918;2022-08-21T09:25:05;17.50;;;14.30;;
40945;SDS011;55635;50.264;11.918;2022-08-21T09:28:10;15.15;;;13.57;;
40945;SDS011;55635;50.264;11.918;2022-08-21T09:30:55;16.67;;;13.60;;
40945;SDS011;55635;50.264;11.918;2022-08-21T09:33:38;14.98;;;13.43;;
40945;SDS011;55635;50.264;11.918;2022-08-21T09:39:37;14.70;;;12.13;;
40945;SDS011;55635;50.264;11.918;2022-08-21T09:42:25;16.77;;;14.30;;
40945;SDS011;55635;50.264;11.918;2022-08-21T09:51:14;14.45;;;13.02;;
40945;SDS011;55635;50.264;11.918;2022-08-21T10:00:15;13.13;;;11.73;;
40945;SDS011;55635;50.264;11.918;2022-08-21T10:03:17;13.43;;;11.25;;
40945;SDS011;55635;50.264;11.918;2022-08-21T10:06:02;14.07;;;11.57;;
40945;SDS011;55635;50.264;11.918;2022-08-21T10:08:48;11.93;;;10.70;;
40945;SDS011;55635;50.264;11.918;2022-08-21T10:11:29;14.32;;;11.07;;
40945;SDS011;55635;50.264;11.918;2022-08-21T10:14:22;11.82;;;10.70;;
40945;SDS011;55635;50.264;11.918;2022-08-21T10:17:14;12.88;;;11.57;;
40945;SDS011;55635;50.264;11.918;2022-08-21T10:20:13;11.60;;;10.50;;
40945;SDS011;55635;50.264;11.918;2022-08-21T10:23:25;9.30;;;8.50;;
40945;SDS011;55635;50.264;11.918;2022-08-21T10:26:36;11.05;;;8.90;;
40945;SDS011;55635;50.264;11.918;2022-08-21T10:35:27;10.23;;;8.40;;
40945;SDS011;55635;50.264;11.918;2022-08-21T10:44:47;9.35;;;8.50;;
40945;SDS011;55635;50.264;11.918;2022-08-21T10:47:44;9.18;;;7.90;;
40945;SDS011;55635;50.264;11.918;2022-08-21T10:50:31;13.27;;;8.68;;
40945;SDS011;55635;50.264;11.918;2022-08-21T10:53:47;8.00;;;7.20;;
40945;SDS011;55635;50.264;11.918;2022-08-21T10:56:51;9.18;;;8.05;;
40945;SDS011;55635;50.264;11.918;2022-08-21T10:59:44;8.52;;;7.82;;
40945;SDS011;55635;50.264;11.918;2022-08-21T11:02:41;10.90;;;7.80;;
40945;SDS011;55635;50.264;11.918;2022-08-21T11:05:25;8.43;;;7.72;;
40945;SDS011;55635;50.264;11.918;2022-08-21T11:14:34;8.13;;;7.43;;
40945;SDS011;55635;50.264;11.918;2022-08-21T11:17:31;7.43;;;6.72;;
40945;SDS011;55635;50.264;11.918;2022-08-21T11:20:43;8.15;;;7.28;;
40945;SDS011;55635;50.264;11.918;2022-08-21T11:23:53;7.00;;;6.32;;
40945;SDS011;55635;50.264;11.918;2022-08-21T11:27:09;8.10;;;7.40;;
40945;SDS011;55635;50.264;11.918;2022-08-21T11:29:54;6.60;;;6.00;;
40945;SDS011;55635;50.264;11.918;2022-08-21T11:38:32;7.68;;;6.10;;
40945;SDS011;55635;50.264;11.918;2022-08-21T11:41:30;8.07;;;6.18;;
40945;SDS011;55635;50.264;11.918;2022-08-21T11:44:36;6.13;;;5.63;;
40945;SDS011;55635;50.264;11.918;2022-08-21T11:47:52;6.80;;;5.65;;
40945;SDS011;55635;50.264;11.918;2022-08-21T11:50:46;6.90;;;6.20;;
40945;SDS011;55635;50.264;11.918;2022-08-21T11:53:49;6.70;;;6.18;;
40945;SDS011;55635;50.264;11.918;2022-08-21T11:56:55;6.55;;;6.00;;
40945;SDS011;55635;50.264;11.918;2022-08-21T12:00:04;6.25;;;5.72;;
40945;SDS011;55635;50.264;11.918;2022-08-21T12:03:15;6.50;;;5.90;;
40945;SDS011;55635;50.264;11.918;2022-08-21T12:06:12;5.18;;;4.78;;
40945;SDS011;55635;50.264;11.918;2022-08-21T12:09:37;4.85;;;4.10;;
40945;SDS011;55635;50.264;11.918;2022-08-21T12:18:18;4.13;;;3.78;;
40945;SDS011;55635;50.264;11.918;2022-08-21T12:27:29;4.97;;;4.15;;
40945;SDS011;55635;50.264;11.918;2022-08-21T12:33:18;5.15;;;4.53;;
40945;SDS011;55635;50.264;11.918;2022-08-21T12:36:07;5.40;;;3.88;;
40945;SDS011;55635;50.264;11.918;2022-08-21T12:38:59;4.07;;;3.78;;
40945;SDS011;55635;50.264;11.918;2022-08-21T12:44:42;6.88;;;3.95;;
40945;SDS011;55635;50.264;11.918;2022-08-21T12:47:32;3.78;;;3.45;;
40945;SDS011;55635;50.264;11.918;2022-08-21T12:50:53;3.80;;;3.03;;
40945;SDS011;55635;50.264;11.918;2022-08-21T12:53:48;3.58;;;3.28;;
40945;SDS011;55635;50.264;11.918;2022-08-21T12:56:35;3.83;;;3.53;;
40945;SDS011;55635;50.264;11.918;2022-08-21T12:59:19;3.80;;;3.42;;
40945;SDS011;55635;50.264;11.918;2022-08-21T13:02:00;4.03;;;3.30;;
40945;SDS011;55635;50.264;11.918;2022-08-21T13:04:50;4.18;;;3.75;;
40945;SDS011;55635;50.264;11.918;2022-08-21T13:07:34;3.75;;;3.45;;
40945;SDS011;55635;50.264;11.918;2022-08-21T13:10:21;3.55;;;3.30;;
40945;SDS011;55635;50.264;11.918;2022-08-21T13:13:14;3.20;;;3.00;;
40945;SDS011;55635;50.264;11.918;2022-08-21T13:16:05;5.85;;;3.67;;
40945;SDS011;55635;50.264;11.918;2022-08-21T13:21:45;3.58;;;3.28;;
40945;SDS011;55635;50.264;11.918;2022-08-21T13:24:27;5.00;;;3.95;;
40945;SDS011;55635;50.264;11.918;2022-08-21T13:27:23;5.97;;;3.85;;
40945;SDS011;55635;50.264;11.918;2022-08-21T13:32:49;3.75;;;3.45;;
40945;SDS011;55635;50.264;11.918;2022-08-21T13:35:44;3.50;;;3.20;;
40945;SDS011;55635;50.264;11.918;2022-08-21T13:38:47;3.40;;;3.20;;
40945;SDS011;55635;50.264;11.918;2022-08-21T13:41:29;3.90;;;3.60;;
40945;SDS011;55635;50.264;11.918;2022-08-21T13:44:24;4.97;;;3.83;;
40945;SDS011;55635;50.264;11.918;2022-08-21T13:47:12;5.68;;;3.97;;
40945;SDS011;55635;50.264;11.918;2022-08-21T13:49:55;4.10;;;3.78;;
40945;SDS011;55635;50.264;11.918;2022-08-21T13:52:44;4.55;;;3.80;;
40945;SDS011;55635;50.264;11.918;2022-08-21T13:55:36;4.53;;;3.47;;
40945;SDS011;55635;50.264;11.918;2022-08-21T13:58:29;4.25;;;3.92;;
40945;SDS011;55635;50.264;11.918;2022-08-21T14:06:50;6.07;;;3.60;;
40945;SDS011;55635;50.264;11.918;2022-08-21T14:09:39;4.93;;;3.60;;
40945;SDS011;55635;50.264;11.918;2022-08-21T14:12:27;3.45;;;3.25;;
40945;SDS011;55635;50.264;11.918;2022-08-21T14:15:26;3.47;;;3.28;;
40945;SDS011;55635;50.264;11.918;2022-08-21T14:18:16;3.55;;;3.35;;
40945;SDS011;55635;50.264;11.918;2022-08-21T14:21:03;3.58;;;3.38;;
40945;SDS011;55635;50.264;11.918;2022-08-21T14:26:54;3.40;;;3.10;;
40945;SDS011;55635;50.264;11.918;2022-08-21T14:29:45;4.25;;;3.40;;
40945;SDS011;55635;50.264;11.918;2022-08-21T14:32:27;3.83;;;3.40;;
40945;SDS011;55635;50.264;11.918;2022-08-21T14:35:15;3.38;;;3.00;;
40945;SDS011;55635;50.264;11.918;2022-08-21T14:37:57;3.47;;;3.17;;
40945;SDS011;55635;50.264;11.918;2022-08-21T14:40:39;3.55;;;3.20;;
40945;SDS011;55635;50.264;11.918;2022-08-21T14:43:27;3.58;;;3.30;;
40945;SDS011;55635;50.264;11.918;2022-08-21T14:46:08;3.58;;;3.25;;
40945;SDS011;55635;50.264;11.918;2022-08-21T14:48:49;3.17;;;2.97;;
40945;SDS011;55635;50.264;11.918;2022-08-21T14:51:30;3.60;;;3.00;;
40945;SDS011;55635;50.264;11.918;2022-08-21T14:54:11;3.75;;;3.33;;
40945;SDS011;55635;50.264;11.918;2022-08-21T14:56:52;3.65;;;3.35;;
40945;SDS011;55635;50.264;11.918;2022-08-21T14:59:35;4.28;;;3.22;;
40945;SDS011;55635;50.264;11.918;2022-08-21T15:02:17;3.90;;;3.55;;
40945;SDS011;55635;50.264;11.918;2022-08-21T15:04:58;6.15;;;3.58;;
40945;SDS011;55635;50.264;11.918;2022-08-21T15:07:39;3.95;;;3.63;;
40945;SDS011;55635;50.264;11.918;2022-08-21T15:10:20;3.60;;;3.30;;
40945;SDS011;55635;50.264;11.918;2022-08-21T15:13:01;4.15;;;3.40;;
40945;SDS011;55635;50.264;11.918;2022-08-21T15:15:44;3.78;;;3.35;;
40945;SDS011;55635;50.264;11.918;2022-08-21T15:18:28;3.78;;;3.50;;
40945;SDS011;55635;50.264;11.918;2022-08-21T15:21:10;3.38;;;3.15;;
40945;SDS011;55635;50.264;11.918;2022-08-21T15:23:51;4.05;;;3.20;;
40945;SDS011;55635;50.264;11.918;2022-08-21T15:26:33;3.83;;;3.47;;
40945;SDS011;55635;50.264;11.918;2022-08-21T15:29:15;3.42;;;2.90;;
40945;SDS011;55635;50.264;11.918;2022-08-21T15:31:58;3.50;;;3.30;;
40945;SDS011;55635;50.264;11.918;2022-08-21T15:34:43;3.10;;;2.90;;
40945;SDS011;55635;50.264;11.918;2022-08-21T15:37:24;3.65;;;2.97;;
40945;SDS011;55635;50.264;11.918;2022-08-21T15:40:06;4.55;;;3.00;;
40945;SDS011;55635;50.264;11.918;2022-08-21T15:42:48;4.32;;;2.95;;
40945;SDS011;55635;50.264;11.918;2022-08-21T15:45:36;3.42;;;3.13;;
40945;SDS011;55635;50.264;11.918;2022-08-21T15:48:17;3.85;;;3.05;;
40945;SDS011;55635;50.264;11.918;2022-08-21T15:50:58;5.32;;;3.00;;
40945;SDS011;55635;50.264;11.918;2022-08-21T15:53:39;3.45;;;3.15;;
40945;SDS011;55635;50.264;11.918;2022-08-21T15:59:19;4.63;;;2.75;;
40945;SDS011;55635;50.264;11.918;2022-08-21T16:02:02;3.15;;;2.80;;
40945;SDS011;55635;50.264;11.918;2022-08-21T16:04:43;3.03;;;2.67;;
40945;SDS011;55635;50.264;11.918;2022-08-21T16:07:24;3.80;;;2.55;;
40945;SDS011;55635;50.264;11.918;2022-08-21T16:10:06;2.60;;;2.40;;
40945;SDS011;55635;50.264;11.918;2022-08-21T16:12:50;5.32;;;2.53;;
40945;SDS011;55635;50.264;11.918;2022-08-21T16:15:38;3.25;;;2.95;;
40945;SDS011;55635;50.264;11.918;2022-08-21T16:18:20;3.33;;;2.78;;
40945;SDS011;55635;50.264;11.918;2022-08-21T16:21:02;3.40;;;2.92;;
40945;SDS011;55635;50.264;11.918;2022-08-21T16:23:43;3.22;;;2.78;;
40945;SDS011;55635;50.264;11.918;2022-08-21T16:26:24;3.38;;;2.88;;
40945;SDS011;55635;50.264;11.918;2022-08-21T16:29:06;5.38;;;3.20;;
40945;SDS011;55635;50.264;11.918;2022-08-21T16:31:48;4.63;;;3.50;;
40945;SDS011;55635;50.264;11.918;2022-08-21T16:34:29;3.42;;;3.13;;
40945;SDS011;55635;50.264;11.918;2022-08-21T16:37:10;3.50;;;2.63;;
40945;SDS011;55635;50.264;11.918;2022-08-21T16:39:51;3.60;;;3.08;;
40945;SDS011;55635;50.264;11.918;2022-08-21T16:42:32;3.30;;;2.97;;
40945;SDS011;55635;50.264;11.918;2022-08-21T16:45:15;3.53;;;3.10;;
40945;SDS011;55635;50.264;11.918;2022-08-21T16:48:00;3.20;;;2.70;;
40945;SDS011;55635;50.264;11.918;2022-08-21T16:50:43;3.47;;;3.17;;
40945;SDS011;55635;50.264;11.918;2022-08-21T16:53:24;5.53;;;2.88;;
40945;SDS011;55635;50.264;11.918;2022-08-21T16:56:05;3.28;;;3.00;;
40945;SDS011;55635;50.264;11.918;2022-08-21T16:58:49;3.67;;;2.58;;
40945;SDS011;55635;50.264;11.918;2022-08-21T17:01:32;4.00;;;3.13;;
40945;SDS011;55635;50.264;11.918;2022-08-21T17:04:14;4.05;;;2.83;;
40945;SDS011;55635;50.264;11.918;2022-08-21T17:06:55;3.38;;;2.72;;
40945;SDS011;55635;50.264;11.918;2022-08-21T17:09:36;3.33;;;2.78;;
40945;SDS011;55635;50.264;11.918;2022-08-21T17:12:17;2.70;;;2.50;;
40945;SDS011;55635;50.264;11.918;2022-08-21T17:15:01;5.07;;;3.20;;
40945;SDS011;55635;50.264;11.918;2022-08-21T17:18:02;5.43;;;2.83;;
40945;SDS011;55635;50.264;11.918;2022-08-21T17:20:46;3.78;;;2.85;;
40945;SDS011;55635;50.264;11.918;2022-08-21T17:23:28;3.40;;;3.10;;
40945;SDS011;55635;50.264;11.918;2022-08-21T17:26:09;5.28;;;2.95;;
40945;SDS011;55635;50.264;11.918;2022-08-21T17:28:50;3.42;;;3.13;;
40945;SDS011;55635;50.264;11.918;2022-08-21T17:31:31;4.05;;;2.67;;
40945;SDS011;55635;50.264;11.918;2022-08-21T17:34:12;5.15;;;3.15;;